Dades meteomassalio
Diari Summary for Gener 16, 2017 Units:  English    Metric   Both
« Previous Day
Next Day »
Diari Semanal Mensual Anual Personalitzat
  Maxima: Minima: Mijana:
Temperatura: 56.1 °F 44.4 °F 49.3 °F
Rosada: 43.9 °F 38.8 °F 41 °F
Humitat: 81 % 60 % 73 %
Velocitat del vent: 42.6 mph 11.5 mph 28 mph
Racha vent: 42.6 mph - -
Vent:- - NW
Pressio: 30.3 in 30 in -
Pluja: 0 in    
Historical Graphs
 
 
Tabular Data for Gener 16, 2017
Time Temperature Dew Point Pressure Wind Wind Speed Wind Gust Humidity Rainfall Rate (Hourly) solar Conditions
00:01 44.4 °F 39 °F 30.3 in NW 20.7 mph 20.7 mph 81 % 0 in 0.0 W/m2 CLR
00:06 44.6 °F 38.8 °F 30.3 in NW 16 mph 16 mph 80 % 0 in 0.0 W/m2 CLR
00:11 44.4 °F 39 °F 30.3 in NW 26.5 mph 26.5 mph 81 % 0 in 0.0 W/m2 CLR
00:16 44.4 °F 39 °F 30.3 in NW 21.9 mph 21.9 mph 81 % 0 in 0.0 W/m2 CLR
00:21 44.4 °F 39 °F 30.3 in NW 20.7 mph 20.7 mph 81 % 0 in 0.0 W/m2 CLR
00:26 44.4 °F 38.8 °F 30.3 in NW 18 mph 18 mph 81 % 0 in 0.0 W/m2 CLR
00:31 44.4 °F 39 °F 30.3 in NW 27.6 mph 27.6 mph 81 % 0 in 0.0 W/m2 CLR
00:36 44.6 °F 39 °F 30.2 in NW 20.7 mph 20.7 mph 81 % 0 in 0.0 W/m2 CLR
00:41 44.8 °F 39.2 °F 30.2 in NW 26.5 mph 26.5 mph 81 % 0 in 0.0 W/m2 CLR
00:46 44.8 °F 39.4 °F 30.2 in NW 25.3 mph 25.3 mph 81 % 0 in 0.0 W/m2 CLR
00:51 44.8 °F 39.4 °F 30.2 in NW 20.7 mph 20.7 mph 81 % 0 in 0.0 W/m2 CLR
00:57 45 °F 39.4 °F 30.2 in NW 18.4 mph 19.1 mph 81 % 0 in 0.0 W/m2 CLR
01:02 45 °F 39.6 °F 30.2 in NW 20.7 mph 20.7 mph 81 % 0 in 0.0 W/m2 CLR
01:07 45 °F 39.4 °F 30.2 in NW 21 mph 21 mph 81 % 0 in 0.0 W/m2 CLR
01:12 45 °F 39.4 °F 30.2 in NW 24.2 mph 24.2 mph 81 % 0 in 0.0 W/m2 CLR
01:17 45 °F 39.2 °F 30.2 in NW 24.2 mph 24.2 mph 80 % 0 in 0.0 W/m2 CLR
01:22 45 °F 39.2 °F 30.2 in NW 21.9 mph 21.9 mph 80 % 0 in 0.0 W/m2 CLR
01:27 45.1 °F 39.6 °F 30.2 in WNW 29.9 mph 29.9 mph 81 % 0 in 0.0 W/m2 CLR
01:32 45.1 °F 39.6 °F 30.2 in NW 26.5 mph 26.5 mph 81 % 0 in 0.0 W/m2 CLR
01:37 45.1 °F 39.6 °F 30.2 in NW 23 mph 23 mph 81 % 0 in 0.0 W/m2 CLR
01:42 45 °F 39.6 °F 30.2 in NW 18.4 mph 18.4 mph 81 % 0 in 0.0 W/m2 CLR
01:47 45 °F 39.6 °F 30.2 in NW 21.9 mph 21.9 mph 81 % 0 in 0.0 W/m2 CLR
01:52 45.1 °F 39.6 °F 30.2 in WNW 23 mph 23 mph 81 % 0 in 0.0 W/m2 CLR
01:57 45.1 °F 39.6 °F 30.2 in NW 20.7 mph 20.7 mph 81 % 0 in 0.0 W/m2 CLR
02:02 45.1 °F 39.6 °F 30.2 in NW 16.1 mph 16.1 mph 81 % 0 in 0.0 W/m2 CLR
02:07 45.1 °F 39.6 °F 30.2 in WNW 24.2 mph 24.2 mph 81 % 0 in 0.0 W/m2 CLR
02:12 45.1 °F 39.4 °F 30.2 in WNW 11.5 mph 11.5 mph 80 % 0 in 0.0 W/m2 CLR
02:17 45 °F 39.6 °F 30.2 in NW 16.1 mph 16.1 mph 81 % 0 in 0.0 W/m2 CLR
02:22 45.1 °F 39.4 °F 30.2 in NW 23 mph 23 mph 80 % 0 in 0.0 W/m2 CLR
02:27 45.1 °F 39.4 °F 30.2 in NW 19.6 mph 19.6 mph 80 % 0 in 0.0 W/m2 CLR
02:32 45.1 °F 39.4 °F 30.2 in NW 19.6 mph 19.6 mph 80 % 0 in 0.0 W/m2 CLR
02:37 45.3 °F 39.6 °F 30.2 in NW 25.3 mph 25.3 mph 80 % 0 in 0.0 W/m2 CLR
02:42 45.3 °F 39.2 °F 30.2 in NW 21.9 mph 21.9 mph 79 % 0 in 0.0 W/m2 CLR
02:47 45.1 °F 39 °F 30.2 in NW 26.5 mph 26.5 mph 79 % 0 in 0.0 W/m2 CLR
02:52 45.5 °F 39.4 °F 30.2 in NW 26.5 mph 26.5 mph 79 % 0 in 0.0 W/m2 CLR
02:57 45.5 °F 39.4 °F 30.2 in NW 27.6 mph 27.6 mph 79 % 0 in 0.0 W/m2 CLR
03:02 45.7 °F 39.6 °F 30.2 in NW 23 mph 23 mph 79 % 0 in 0.0 W/m2 CLR
03:07 45.5 °F 39.4 °F 30.2 in NW 20.7 mph 20.7 mph 79 % 0 in 0.0 W/m2 CLR
03:12 45.7 °F 39.6 °F 30.2 in NW 20.7 mph 20.7 mph 79 % 0 in 0.0 W/m2 CLR
03:17 45.7 °F 39.6 °F 30.2 in NW 22 mph 22 mph 79 % 0 in 0.0 W/m2 CLR
03:22 45.9 °F 39.7 °F 30.2 in NW 23 mph 23 mph 79 % 0 in 0.0 W/m2 CLR
03:27 46 °F 39.6 °F 30.2 in WNW 23 mph 23 mph 78 % 0 in 0.0 W/m2 CLR
03:32 46 °F 39.6 °F 30.2 in NW 24.2 mph 24.2 mph 78 % 0 in 0.0 W/m2 CLR
03:37 46 °F 39.6 °F 30.2 in NW 19.6 mph 19.6 mph 78 % 0 in 0.0 W/m2 CLR
03:42 46 °F 39.6 °F 30.2 in NW 23 mph 23 mph 78 % 0 in 0.0 W/m2 CLR
03:47 46 °F 39.9 °F 30.2 in NW 21 mph 21 mph 79 % 0 in 0.0 W/m2 CLR
03:52 46 °F 39.6 °F 30.2 in NW 19.6 mph 19.6 mph 78 % 0 in 0.0 W/m2 CLR
03:57 45.9 °F 39.7 °F 30.2 in NW 20.7 mph 20.7 mph 79 % 0 in 0.0 W/m2 CLR
04:02 46 °F 39.9 °F 30.2 in NW 19 mph 19 mph 79 % 0 in 0.0 W/m2 CLR
04:07 46 °F 39.6 °F 30.2 in NW 21.9 mph 21.9 mph 78 % 0 in 0.0 W/m2 CLR
04:12 46 °F 39.9 °F 30.2 in NW 19.6 mph 19.6 mph 79 % 0 in 0.0 W/m2 CLR
04:17 46 °F 39.9 °F 30.2 in NW 24.2 mph 24.2 mph 79 % 0 in 0.0 W/m2 CLR
04:22 45.9 °F 39.7 °F 30.2 in WNW 23 mph 23 mph 79 % 0 in 0.0 W/m2 CLR
04:27 46 °F 39.9 °F 30.2 in WNW 23 mph 23 mph 79 % 0 in 0.0 W/m2 CLR
04:32 46 °F 39.9 °F 30.2 in NW 28.8 mph 28.8 mph 79 % 0 in 0.0 W/m2 CLR
04:37 46 °F 39.9 °F 30.2 in NW 17.3 mph 17.3 mph 79 % 0 in 0.0 W/m2 CLR
04:42 46 °F 39.9 °F 30.2 in NW 19.6 mph 19.6 mph 79 % 0 in 0.0 W/m2 CLR
04:47 45.9 °F 39.7 °F 30.2 in NW 23 mph 23 mph 79 % 0 in 0.0 W/m2 CLR
04:52 46 °F 39.9 °F 30.2 in NW 27.6 mph 27.6 mph 79 % 0 in 0.0 W/m2 CLR
04:57 46 °F 39.9 °F 30.2 in NW 21.9 mph 21.9 mph 79 % 0 in 0.0 W/m2 CLR
05:02 46 °F 39.9 °F 30.2 in NW 27.6 mph 27.6 mph 79 % 0 in 0.0 W/m2 CLR
05:07 46 °F 40.3 °F 30.2 in NW 19.6 mph 19.6 mph 80 % 0 in 0.0 W/m2 CLR
05:12 46 °F 40.3 °F 30.2 in NW 19.6 mph 19.6 mph 80 % 0 in 0.0 W/m2 CLR
05:17 46 °F 40.3 °F 30.2 in NW 26.5 mph 26.5 mph 80 % 0 in 0.0 W/m2 CLR
05:22 46.2 °F 40.5 °F 30.2 in NW 31.1 mph 31.1 mph 80 % 0 in 0.0 W/m2 CLR
05:27 46.4 °F 40.3 °F 30.2 in NW 23 mph 23 mph 79 % 0 in 0.0 W/m2 CLR
05:32 46.4 °F 40.3 °F 30.2 in NW 24.2 mph 24.2 mph 79 % 0 in 0.0 W/m2 CLR
05:37 46.6 °F 40.3 °F 30.2 in NW 24 mph 24 mph 79 % 0 in 0.0 W/m2 CLR
05:42 46.6 °F 40.5 °F 30.2 in NW 26.5 mph 26.5 mph 79 % 0 in 0.0 W/m2 CLR
05:47 46.6 °F 40.5 °F 30.2 in NW 23 mph 23 mph 79 % 0 in 0.0 W/m2 CLR
05:52 46.6 °F 40.1 °F 30.2 in NW 26.5 mph 26.5 mph 78 % 0 in 0.0 W/m2 CLR
05:57 46.8 °F 40.3 °F 30.2 in NW 34.5 mph 34.5 mph 78 % 0 in 0.0 W/m2 CLR
06:02 46.8 °F 39.9 °F 30.2 in NW 23 mph 23 mph 77 % 0 in 0.0 W/m2 CLR
06:07 46.8 °F 39.9 °F 30.1 in NW 24.2 mph 24.2 mph 77 % 0 in 0.0 W/m2 CLR
06:12 46.8 °F 39.9 °F 30.1 in NW 25.3 mph 25.3 mph 77 % 0 in 0.0 W/m2 CLR
06:17 46.8 °F 39.9 °F 30.2 in NW 32.2 mph 32.2 mph 77 % 0 in 0.0 W/m2 CLR
06:22 46.9 °F 40.1 °F 30.1 in NW 27.6 mph 27.6 mph 77 % 0 in 0.0 W/m2 CLR
06:27 46.9 °F 40.1 °F 30.1 in NW 32.2 mph 32.2 mph 77 % 0 in 0.0 W/m2 CLR
06:32 46.9 °F 40.3 °F 30.1 in NNW 34.5 mph 34.5 mph 77 % 0 in 0.0 W/m2 CLR
06:37 47.1 °F 40.3 °F 30.1 in NW 31.1 mph 31.1 mph 77 % 0 in 0.0 W/m2 CLR
06:42 47.1 °F 40.3 °F 30.2 in NW 32.2 mph 32.2 mph 77 % 0 in 0.0 W/m2 CLR
06:47 47.1 °F 39.9 °F 30.1 in NW 27.6 mph 27.6 mph 76 % 0 in 0.0 W/m2 CLR
06:52 47.1 °F 39.9 °F 30.1 in NW 34.5 mph 34.5 mph 76 % 0 in 0.0 W/m2 CLR
06:57 47.1 °F 39.9 °F 30.1 in NW 23 mph 23 mph 76 % 0 in 0.0 W/m2 CLR
07:03 47.1 °F 39.9 °F 30.1 in NW 24.2 mph 24.2 mph 76 % 0 in 0.0 W/m2 CLR
07:08 47.1 °F 39.9 °F 30.1 in NW 26 mph 26 mph 76 % 0 in 0.0 W/m2 CLR
07:13 47.1 °F 39.9 °F 30.1 in NW 27 mph 27 mph 76 % 0 in 0.0 W/m2 CLR
07:18 47.3 °F 40.1 °F 30.1 in NW 32 mph 32 mph 76 % 0 in 0.0 W/m2 CLR
07:23 47.3 °F 40.1 °F 30.1 in NW 22 mph 22 mph 76 % 0 in 0.0 W/m2 CLR
07:28 47.3 °F 40.1 °F 30.1 in NW 29.9 mph 29.9 mph 76 % 0 in 0.0 W/m2 CLR
07:33 47.3 °F 40.1 °F 30.1 in NW 25.3 mph 25.3 mph 76 % 0 in 0.0 W/m2 CLR
07:38 47.3 °F 40.5 °F 30.2 in NW 27.6 mph 27.6 mph 77 % 0 in 0.0 W/m2 CLR
07:43 47.3 °F 40.5 °F 30.1 in NW 20.7 mph 20.7 mph 77 % 0 in 0.0 W/m2 CLR
07:48 47.3 °F 40.5 °F 30.1 in NW 27 mph 27 mph 77 % 0 in 0.0 W/m2 CLR
07:53 47.1 °F 40.5 °F 30.1 in NW 32.2 mph 32.2 mph 77 % 0 in 0.0 W/m2 CLR
07:58 47.1 °F 40.3 °F 30.1 in NW 23 mph 23 mph 77 % 0 in 0.0 W/m2 CLR
08:03 47.1 °F 40.5 °F 30.1 in NW 25.3 mph 25.3 mph 77 % 0 in 0.0 W/m2 CLR
08:08 47.1 °F 40.6 °F 30.1 in NW 26.5 mph 26.5 mph 78 % 0 in 0.0 W/m2 CLR
08:13 47.1 °F 40.6 °F 30.1 in NW 25.3 mph 25.3 mph 78 % 0 in 0.0 W/m2 CLR
08:18 47.1 °F 40.6 °F 30.1 in NW 28.8 mph 28.8 mph 78 % 0 in 0.0 W/m2 CLR
08:23 47.1 °F 40.6 °F 30.1 in NW 27.6 mph 27.6 mph 78 % 0 in 0.0 W/m2 OVC
08:28 47.1 °F 40.6 °F 30.1 in NW 29.9 mph 29.9 mph 78 % 0 in 5.0 W/m2 BKN
08:33 47.1 °F 40.6 °F 30.1 in NW 24.2 mph 24.2 mph 78 % 0 in 7.0 W/m2 BKN
08:38 46.9 °F 40.8 °F 30.1 in NW 20.7 mph 20.7 mph 79 % 0 in 9.0 W/m2 BKN
08:43 47.1 °F 40.8 °F 30.1 in NNW 23 mph 23 mph 79 % 0 in 18.0 W/m2 BKN
08:48 47.1 °F 41 °F 30.1 in NW 28.8 mph 28.8 mph 79 % 0 in 12.0 W/m2 BKN
08:53 47.1 °F 41 °F 30.1 in NW 27.6 mph 27.6 mph 79 % 0 in 23.0 W/m2 BKN
08:58 47.3 °F 41.2 °F 30.1 in NW 22 mph 22 mph 79 % 0 in 23.0 W/m2 BKN
09:04 47.5 °F 41 °F 30.1 in NW 29 mph 29 mph 78 % 0 in 21.0 W/m2 BKN
09:09 47.5 °F 41 °F 30.1 in NW 19.6 mph 19.6 mph 78 % 0 in 23.0 W/m2 BKN
09:14 47.5 °F 41.4 °F 30.1 in NW 23 mph 23 mph 79 % 0 in 25.0 W/m2 BKN
09:19 47.7 °F 41.4 °F 30.1 in NW 25.3 mph 25.3 mph 79 % 0 in 23.0 W/m2 BKN
09:24 47.8 °F 41.4 °F 30.1 in NW 33.4 mph 33.4 mph 78 % 0 in 76.0 W/m2 BKN
09:29 48 °F 41.5 °F 30.1 in NW 35.7 mph 35.7 mph 78 % 0 in 40.0 W/m2 BKN
09:34 48.2 °F 41.7 °F 30.1 in NW 34.5 mph 34.5 mph 78 % 0 in 42.0 W/m2 BKN
09:39 48.2 °F 41.7 °F 30.1 in NNW 24.2 mph 24.2 mph 78 % 0 in 77.0 W/m2 BKN
09:44 48.4 °F 41.9 °F 30.1 in NW 31.1 mph 31.1 mph 78 % 0 in 134.0 W/m2 BKN
09:49 48.6 °F 42.1 °F 30.1 in NW 34.5 mph 34.5 mph 78 % 0 in 162.0 W/m2 BKN
09:54 48.7 °F 41.7 °F 30.1 in NW 33.4 mph 33.4 mph 77 % 0 in 142.0 W/m2 BKN
09:59 48.9 °F 42.1 °F 30.1 in NW 26.5 mph 26.5 mph 77 % 0 in 160.0 W/m2 SCT
10:04 49.1 °F 42.3 °F 30.1 in NW 34.5 mph 34.5 mph 77 % 0 in 160.0 W/m2 BKN
10:09 49.3 °F 42.4 °F 30.1 in NW 26.5 mph 26.5 mph 77 % 0 in 146.0 W/m2 BKN
10:14 49.5 °F 42.6 °F 30.1 in NW 21.9 mph 21.9 mph 77 % 0 in 229.0 W/m2 SCT
10:19 49.6 °F 42.8 °F 30.1 in NW 27.6 mph 27.6 mph 77 % 0 in 246.0 W/m2 SCT
10:24 49.8 °F 42.6 °F 30.1 in NW 25.3 mph 25.3 mph 76 % 0 in 262.0 W/m2 SCT
10:29 50.2 °F 42.4 °F 30.1 in NW 27.6 mph 27.6 mph 75 % 0 in 274.0 W/m2 SCT
10:34 50.4 °F 42.8 °F 30.1 in NW 26.5 mph 26.5 mph 75 % 0 in 297.0 W/m2 SCT
10:39 50.5 °F 43 °F 30.1 in NW 20 mph 20 mph 75 % 0 in 315.0 W/m2 FEW
10:44 50.7 °F 43.2 °F 30.1 in NW 26.5 mph 26.5 mph 75 % 0 in 334.0 W/m2 FEW
10:49 51.1 °F 43.3 °F 30.1 in NW 22 mph 22 mph 75 % 0 in 294.0 W/m2 FEW
10:54 51.1 °F 43 °F 30.1 in NNW 26.5 mph 26.5 mph 74 % 0 in 364.0 W/m2 FEW
10:59 51.1 °F 43.2 °F 30.1 in NW 28.8 mph 28.8 mph 74 % 0 in 424.0 W/m2 CLR
11:04 51.6 °F 43.5 °F 30.1 in NW 24.2 mph 24.2 mph 74 % 0 in 461.0 W/m2 CLR
11:09 51.4 °F 43.2 °F 30.1 in NW 29.9 mph 29.9 mph 73 % 0 in 364.0 W/m2 CLR
11:14 51.6 °F 43.2 °F 30.1 in NW 32.2 mph 32.2 mph 73 % 0 in 352.0 W/m2 CLR
11:19 52 °F 43.2 °F 30.1 in NW 31.1 mph 31.1 mph 72 % 0 in 301.0 W/m2 FEW
11:24 52 °F 43.3 °F 30.1 in NW 27 mph 27 mph 72 % 0 in 380.0 W/m2 FEW
11:29 52.2 °F 43.3 °F 30.1 in NW 26.5 mph 26.5 mph 72 % 0 in 390.0 W/m2 FEW
11:34 52.3 °F 43.3 °F 30.1 in NW 28.8 mph 28.8 mph 71 % 0 in 401.0 W/m2 FEW
11:39 52.5 °F 43.3 °F 30.1 in NW 26.5 mph 26.5 mph 71 % 0 in 392.0 W/m2 FEW
11:44 52.9 °F 43.3 °F 30.1 in NW 21.9 mph 21.9 mph 70 % 0 in 427.0 W/m2 CLR
11:45 53.1 °F 43.9 °F 30.1 in NW 26 mph 26 mph 71 % 0 in 427.0 W/m2 CLR
11:50 53.1 °F 43.2 °F 30.1 in NW 26.5 mph 26.5 mph 69 % 0 in 427.0 W/m2 CLR
11:55 53.2 °F 43.3 °F 30.1 in NW 27.6 mph 27.6 mph 69 % 0 in 427.0 W/m2 CLR
12:00 53.2 °F 43.3 °F 30.1 in NW 26.5 mph 26.5 mph 69 % 0 in 427.0 W/m2 CLR
12:05 53.2 °F 43 °F 30.1 in NNW 29.9 mph 29.9 mph 68 % 0 in 420.0 W/m2 CLR
12:10 53.4 °F 43.2 °F 30.1 in NNW 30 mph 30 mph 68 % 0 in 436.0 W/m2 FEW
12:15 53.4 °F 43.2 °F 30.1 in NW 26.5 mph 26.5 mph 68 % 0 in 439.0 W/m2 FEW
12:20 53.8 °F 43.2 °F 30.1 in NW 31.1 mph 31.1 mph 67 % 0 in 461.0 W/m2 CLR
12:25 54.1 °F 43.3 °F 30.1 in NW 21.9 mph 21.9 mph 67 % 0 in 450.0 W/m2 CLR
12:30 54.1 °F 43.2 °F 30.1 in NW 28.8 mph 28.8 mph 66 % 0 in 448.0 W/m2 CLR
12:35 54.3 °F 43 °F 30.1 in NW 34.5 mph 34.5 mph 65 % 0 in 452.0 W/m2 CLR
12:40 54.7 °F 43.2 °F 30.1 in NW 35.7 mph 35.7 mph 65 % 0 in 454.0 W/m2 CLR
12:45 54.7 °F 42.6 °F 30.1 in NW 29.9 mph 29.9 mph 64 % 0 in 455.0 W/m2 CLR
12:50 54.5 °F 42.6 °F 30.1 in NW 34.5 mph 34.5 mph 64 % 0 in 461.0 W/m2 CLR
12:55 54.9 °F 42.4 °F 30.1 in NW 32.2 mph 32.2 mph 63 % 0 in 462.0 W/m2 CLR
13:00 54.9 °F 42.4 °F 30.1 in NW 26.5 mph 26.5 mph 63 % 0 in 462.0 W/m2 CLR
13:05 55.2 °F 43 °F 30.1 in NW 28.8 mph 28.8 mph 63 % 0 in 462.0 W/m2 CLR
13:10 55.6 °F 43.2 °F 30.1 in NW 28 mph 28 mph 63 % 0 in 462.0 W/m2 CLR
13:15 55.6 °F 42.8 °F 30.1 in NW 35.7 mph 35.7 mph 62 % 0 in 464.0 W/m2 CLR
13:20 55.6 °F 42.6 °F 30.1 in NW 28.8 mph 28.8 mph 62 % 0 in 464.0 W/m2 CLR
13:25 55.8 °F 43 °F 30.1 in NW 26.5 mph 26.5 mph 62 % 0 in 487.0 W/m2 CLR
13:30 56.1 °F 42.8 °F 30.1 in NW 28.8 mph 28.8 mph 61 % 0 in 476.0 W/m2 CLR
13:36 55.9 °F 42.3 °F 30.1 in NW 34.5 mph 34.5 mph 60 % 0 in 501.0 W/m2 CLR
13:41 55.6 °F 42.4 °F 30.1 in NW 34.5 mph 34.5 mph 61 % 0 in 492.0 W/m2 CLR
13:46 55 °F 42.3 °F 30 in NW 26.5 mph 26.5 mph 62 % 0 in 84.0 W/m2 FEW
13:51 55.2 °F 43.2 °F 30 in NW 29 mph 29 mph 64 % 0 in 519.0 W/m2 SCT
13:56 55.8 °F 43.7 °F 30 in NW 28.8 mph 28.8 mph 64 % 0 in 531.0 W/m2 SCT
14:01 55.6 °F 43.2 °F 30 in NW 35.7 mph 35.7 mph 63 % 0 in 127.0 W/m2 CLR
14:06 54.7 °F 42.6 °F 30 in NW 34.5 mph 34.5 mph 64 % 0 in 76.0 W/m2 BKN
14:11 54.5 °F 43 °F 30 in NW 33.4 mph 33.4 mph 65 % 0 in 86.0 W/m2 BKN
14:16 55 °F 43.2 °F 30 in NW 35.7 mph 35.7 mph 64 % 0 in 475.0 W/m2 BKN
14:21 55.8 °F 43.7 °F 30 in NW 24.2 mph 24.2 mph 64 % 0 in 527.0 W/m2 CLR
14:26 55.6 °F 43.2 °F 30 in NW 31.1 mph 31.4 mph 63 % 0 in 77.0 W/m2 CLR
14:31 54.5 °F 43 °F 30 in NW 29.9 mph 29.9 mph 65 % 0 in 79.0 W/m2 BKN
14:36 54.1 °F 42.6 °F 30 in NW 35.7 mph 35.7 mph 65 % 0 in 83.0 W/m2 BKN
14:41 53.8 °F 42.6 °F 30 in NW 33.4 mph 33.4 mph 66 % 0 in 79.0 W/m2 BKN
14:46 53.8 °F 42.6 °F 30 in NW 40.3 mph 40.3 mph 66 % 0 in 183.0 W/m2 BKN
14:51 53.8 °F 42.6 °F 30 in NW 34.5 mph 34.5 mph 66 % 0 in 79.0 W/m2 BKN
14:56 54.1 °F 42.6 °F 30 in NW 41.4 mph 41.4 mph 65 % 0 in 392.0 W/m2 BKN
15:01 54.1 °F 42.6 °F 30 in NW 34.5 mph 34.5 mph 65 % 0 in 77.0 W/m2 SCT
15:06 53.8 °F 42.6 °F 30 in NW 29 mph 29 mph 66 % 0 in 69.0 W/m2 SCT
15:11 54 °F 42.4 °F 30 in NW 21.9 mph 21.9 mph 65 % 0 in 79.0 W/m2 BKN
15:16 54.3 °F 43 °F 30 in NW 32.2 mph 32.2 mph 65 % 0 in 360.0 W/m2 SCT
15:21 54.7 °F 42.8 °F 30 in NW 31 mph 31 mph 64 % 0 in 338.0 W/m2 CLR
15:26 54.9 °F 42.1 °F 30 in NW 35.7 mph 35.7 mph 62 % 0 in 327.0 W/m2 CLR
15:31 55.2 °F 42.4 °F 30 in NW 35 mph 35 mph 62 % 0 in 320.0 W/m2 CLR
15:36 55 °F 42.3 °F 30 in NW 33.4 mph 33.4 mph 62 % 0 in 309.0 W/m2 CLR
15:41 54.7 °F 41.9 °F 30 in NW 34.5 mph 34.5 mph 62 % 0 in 301.0 W/m2 CLR
15:46 55 °F 41.7 °F 30 in NW 35.7 mph 35.7 mph 61 % 0 in 287.0 W/m2 CLR
15:51 54.7 °F 41.5 °F 30 in NW 41.4 mph 41.4 mph 61 % 0 in 276.0 W/m2 CLR
15:56 54.7 °F 41.7 °F 30 in NW 32.2 mph 32.2 mph 62 % 0 in 265.0 W/m2 CLR
16:01 54.7 °F 41.5 °F 30 in NNW 42.6 mph 42.6 mph 61 % 0 in 250.0 W/m2 CLR
16:06 54.5 °F 41.7 °F 30 in NW 28.8 mph 28.8 mph 62 % 0 in 236.0 W/m2 CLR
16:11 54.7 °F 41.7 °F 30 in NNW 38 mph 38 mph 62 % 0 in 221.0 W/m2 CLR
16:16 54.7 °F 42.3 °F 30 in NNW 26.5 mph 26.5 mph 63 % 0 in 207.0 W/m2 CLR
16:21 54.5 °F 41.7 °F 30 in NNW 40.3 mph 40.3 mph 62 % 0 in 195.0 W/m2 CLR
16:26 54.3 °F 42.1 °F 30 in NNW 34 mph 34 mph 63 % 0 in 178.0 W/m2 CLR
16:31 54.1 °F 41.9 °F 30 in NW 34.5 mph 34.5 mph 63 % 0 in 163.0 W/m2 CLR
16:36 54 °F 41.7 °F 30 in NW 36.8 mph 36.8 mph 63 % 0 in 149.0 W/m2 CLR
16:41 53.8 °F 41.9 °F 30 in NW 41.4 mph 41.4 mph 64 % 0 in 135.0 W/m2 CLR
16:46 53.8 °F 42.3 °F 30 in NW 36.8 mph 36.8 mph 65 % 0 in 121.0 W/m2 CLR
16:51 53.6 °F 42.1 °F 30 in NW 33.4 mph 33.4 mph 65 % 0 in 105.0 W/m2 CLR
16:56 53.4 °F 41.9 °F 30 in NW 36.8 mph 36.8 mph 65 % 0 in 93.0 W/m2 CLR
17:02 53.2 °F 41.7 °F 30 in NW 35.7 mph 35.7 mph 65 % 0 in 74.0 W/m2 CLR
17:07 53.1 °F 41.5 °F 30 in NW 32.2 mph 32.2 mph 65 % 0 in 53.0 W/m2 CLR
17:08 53.1 °F 41.5 °F 30 in NW 32.2 mph 32.2 mph 65 % 0 in 46.0 W/m2 CLR
17:14 53.1 °F 41.5 °F 30 in NW 36.8 mph 36.8 mph 65 % 0 in 40.0 W/m2
17:19 52.9 °F 41.7 °F 30 in NW 32.2 mph 32.2 mph 66 % 0 in 32.0 W/m2 OVC
17:24 52.5 °F 41.5 °F 30 in NW 34.5 mph 34.5 mph 66 % 0 in 26.0 W/m2 OVC
17:31 52.3 °F 41.4 °F 30 in NW 39.1 mph 39.1 mph 66 % 0 in 18.0 W/m2 OVC
17:33 52.3 °F 41.4 °F 30 in NW 27.6 mph 27.6 mph 66 % 0 in 14.0 W/m2
17:39 52 °F 41.4 °F 30 in NW 31.1 mph 31.1 mph 67 % 0 in 11.0 W/m2 OVC
17:44 52 °F 41.4 °F 30 in NW 27.6 mph 27.6 mph 67 % 0 in 9.0 W/m2
17:48 51.6 °F 41.5 °F 30 in NW 28.8 mph 28.8 mph 68 % 0 in 9.0 W/m2 OVC
17:49 51.6 °F 41.4 °F 30 in NW 29.9 mph 29.9 mph 68 % 0 in 7.0 W/m2 OVC
17:54 51.4 °F 41.4 °F 30 in NW 42.6 mph 42.6 mph 68 % 0 in 5.0 W/m2
17:55 51.4 °F 41.4 °F 30 in NW 36.8 mph 36.8 mph 68 % 0 in 5.0 W/m2
17:59 51.4 °F 41.4 °F 30 in NW 29.9 mph 29.9 mph 68 % 0 in 0.0 W/m2 CLR
18:12 51.1 °F 40.8 °F 30 in NW 39.1 mph 39.1 mph 68 % 0 in 0.0 W/m2 CLR
18:13 51.1 °F 40.8 °F 30 in NW 39.1 mph 39.1 mph 68 % 0 in 0.0 W/m2 CLR
18:16 50.9 °F 40.6 °F 30 in NW 25.3 mph 25.3 mph 68 % 0 in 0.0 W/m2 CLR
18:23 50.9 °F 40.6 °F 30 in NNW 35.7 mph 35.7 mph 68 % 0 in 0.0 W/m2 CLR
18:29 50.7 °F 40.6 °F 30 in NNW 31.1 mph 31.1 mph 68 % 0 in 0.0 W/m2 CLR
18:32 50.7 °F 40.5 °F 30 in NW 34.5 mph 34.5 mph 68 % 0 in 0.0 W/m2
18:33 50.7 °F 40.5 °F 30 in NW 34.5 mph 34.5 mph 68 % 0 in 0.0 W/m2
18:40 50.5 °F 40.5 °F 30 in NNW 30 mph 30 mph 68 % 0 in 0.0 W/m2
18:41 50.5 °F 40.5 °F 30 in NNW 34.5 mph 34.5 mph 68 % 0 in 0.0 W/m2
18:45 50.4 °F 40.6 °F 30 in NNW 28.8 mph 28.8 mph 69 % 0 in 0.0 W/m2 CLR
18:52 50.2 °F 40.5 °F 30 in NW 35.7 mph 35.7 mph 69 % 0 in 0.0 W/m2 CLR
18:54 50.2 °F 40.5 °F 30 in NW 29.9 mph 29.9 mph 69 % 0 in 0.0 W/m2 CLR
18:56 50.2 °F 40.5 °F 30 in NW 34.5 mph 34.5 mph 69 % 0 in 0.0 W/m2 CLR
18:57 50.2 °F 40.5 °F 30 in NW 28.8 mph 28.8 mph 69 % 0 in 0.0 W/m2 CLR
19:01 50.2 °F 40.3 °F 30 in NW 26.5 mph 26.5 mph 69 % 0 in 0.0 W/m2 CLR
19:08 49.8 °F 40.1 °F 30 in NW 32.2 mph 32.2 mph 69 % 0 in 0.0 W/m2 CLR
19:16 49.6 °F 40.3 °F 30 in NW 20.7 mph 20.7 mph 70 % 0 in 0.0 W/m2 CLR
19:25 49.5 °F 40.8 °F 30 in NW 28.8 mph 28.8 mph 72 % 0 in 0.0 W/m2 CLR
19:28 49.5 °F 40.8 °F 30 in NNW 34.5 mph 34.5 mph 72 % 0 in 0.0 W/m2
19:29 49.5 °F 40.8 °F 30 in NW 34.5 mph 34.5 mph 72 % 0 in 0.0 W/m2
19:31 49.5 °F 40.8 °F 30 in NNW 26.5 mph 26.5 mph 72 % 0 in 0.0 W/m2
19:46 49.3 °F 40.6 °F 30 in NW 23 mph 23 mph 72 % 0 in 0.0 W/m2 CLR
19:47 49.3 °F 40.6 °F 30 in NW 34 mph 34 mph 72 % 0 in 0.0 W/m2 CLR
19:53 49.3 °F 40.6 °F 30 in NW 31.1 mph 31.1 mph 72 % 0 in 0.0 W/m2 CLR
19:58 49.1 °F 40.8 °F 30 in NW 33.4 mph 33.4 mph 73 % 0 in 0.0 W/m2 CLR
20:07 48.9 °F 41.2 °F 30 in NW 32.2 mph 32.2 mph 74 % 0 in 0.0 W/m2 CLR
20:09 48.9 °F 41 °F 30 in NW 32.2 mph 32.2 mph 74 % 0 in 0.0 W/m2 CLR
20:11 48.9 °F 41 °F 30 in NW 34.5 mph 34.5 mph 74 % 0 in 0.0 W/m2 CLR
20:27 48.7 °F 40.8 °F 30 in NNW 32.2 mph 32.2 mph 74 % 0 in 0.0 W/m2 CLR
20:32 48.7 °F 40.8 °F 30 in NW 25.3 mph 25.3 mph 74 % 0 in 0.0 W/m2 CLR
20:40 48.6 °F 41 °F 30 in NNW 26.5 mph 26.5 mph 75 % 0 in 0.0 W/m2 CLR
21:05 48.4 °F 40.5 °F 30 in NNW 26.5 mph 26.5 mph 74 % 0 in 0.0 W/m2 CLR
21:08 48.4 °F 40.5 °F 30 in NNW 29.9 mph 29.9 mph 74 % 0 in 0.0 W/m2 CLR
21:11 48.2 °F 40.3 °F 30 in NNW 34 mph 34 mph 74 % 0 in 0.0 W/m2 CLR
21:15 48.2 °F 40.3 °F 30 in NNW 29.9 mph 29.9 mph 74 % 0 in 0.0 W/m2 CLR
21:22 48 °F 40.3 °F 30 in NNW 26.5 mph 26.5 mph 74 % 0 in 0.0 W/m2 CLR
21:24 48 °F 40.1 °F 30 in NNW 34.5 mph 34.5 mph 74 % 0 in 0.0 W/m2 CLR
21:26 48 °F 40.1 °F 30 in NNW 26.5 mph 26.5 mph 74 % 0 in 0.0 W/m2 CLR
21:27 48 °F 40.1 °F 30 in NNW 29.9 mph 29.9 mph 74 % 0 in 0.0 W/m2 CLR
21:32 47.8 °F 39.9 °F 30 in NNW 32.2 mph 32.2 mph 74 % 0 in 0.0 W/m2 CLR
21:33 47.8 °F 39.9 °F 30 in NNW 32.2 mph 32.2 mph 74 % 0 in 0.0 W/m2 CLR
21:48 47.7 °F 39.6 °F 30 in NNW 32.2 mph 32.2 mph 73 % 0 in 0.0 W/m2 CLR
21:54 47.7 °F 39.6 °F 30 in NNW 26.5 mph 26.5 mph 73 % 0 in 0.0 W/m2 CLR
21:56 47.7 °F 39.6 °F 30 in NNW 26.5 mph 26.5 mph 73 % 0 in 0.0 W/m2 CLR
22:03 47.7 °F 39.4 °F 30 in NNW 20.7 mph 20.7 mph 73 % 0 in 0.0 W/m2 CLR
22:05 47.7 °F 39.4 °F 30 in NNW 24 mph 24 mph 73 % 0 in 0.0 W/m2 CLR
22:11 47.5 °F 39.4 °F 30 in NNW 19.6 mph 20.4 mph 73 % 0 in 0.0 W/m2 CLR
22:16 47.5 °F 39.4 °F 30 in NNW 28.8 mph 28.8 mph 73 % 0 in 0.0 W/m2 CLR
22:18 47.7 °F 39.6 °F 30 in NW 25.3 mph 25.3 mph 73 % 0 in 0.0 W/m2 CLR
22:20 47.7 °F 39.6 °F 30 in NW 26.5 mph 26.5 mph 73 % 0 in 0.0 W/m2 CLR
22:28 47.5 °F 39.4 °F 30 in NNW 28.8 mph 28.8 mph 73 % 0 in 0.0 W/m2 CLR
22:29 47.5 °F 39.6 °F 30 in NW 29.9 mph 29.9 mph 74 % 0 in 0.0 W/m2 CLR
22:30 47.5 °F 39.6 °F 30 in NW 31.1 mph 31.1 mph 74 % 0 in 0.0 W/m2 CLR
22:32 47.5 °F 39.6 °F 30 in NW 29 mph 29 mph 74 % 0 in 0.0 W/m2 CLR
22:35 47.5 °F 39.6 °F 30 in NW 26 mph 26 mph 74 % 0 in 0.0 W/m2 CLR
22:37 47.3 °F 39.4 °F 30 in NW 29.9 mph 29.9 mph 74 % 0 in 0.0 W/m2 CLR
22:40 47.3 °F 39.7 °F 30 in NNW 26.5 mph 26.5 mph 75 % 0 in 0.0 W/m2 CLR
22:41 47.3 °F 39.7 °F 30 in NNW 26.5 mph 26.5 mph 75 % 0 in 0.0 W/m2 CLR
22:46 47.1 °F 39.7 °F 30 in NW 30 mph 30 mph 75 % 0 in 0.0 W/m2 CLR
22:51 47.3 °F 40.1 °F 30 in NNW 27.6 mph 27.6 mph 76 % 0 in 0.0 W/m2 CLR
22:56 47.1 °F 39.9 °F 30 in NNW 27 mph 27 mph 76 % 0 in 0.0 W/m2 CLR
23:01 47.1 °F 39.9 °F 30 in NW 24.2 mph 24.2 mph 76 % 0 in 0.0 W/m2 CLR
23:06 47.1 °F 40.5 °F 30 in NNW 34.5 mph 34.5 mph 77 % 0 in 0.0 W/m2 CLR
23:11 47.1 °F 40.3 °F 30 in NW 26.5 mph 26.5 mph 77 % 0 in 0.0 W/m2 CLR
23:16 47.1 °F 40.3 °F 30 in NW 26.5 mph 26.5 mph 77 % 0 in 0.0 W/m2 CLR
23:21 46.9 °F 40.5 °F 30 in NW 25.3 mph 25.3 mph 78 % 0 in 0.0 W/m2 CLR
23:26 46.9 °F 40.5 °F 30 in NNW 27.6 mph 27.6 mph 78 % 0 in 0.0 W/m2 CLR
23:31 46.9 °F 40.5 °F 30 in NNW 28.8 mph 28.8 mph 78 % 0 in 0.0 W/m2 CLR
23:36 46.9 °F 40.6 °F 30 in NW 26.5 mph 26.5 mph 79 % 0 in 0.0 W/m2 CLR
23:41 46.8 °F 40.6 °F 30 in NW 23 mph 23 mph 79 % 0 in 0.0 W/m2 CLR
23:46 46.9 °F 40.6 °F 30 in NW 24.2 mph 24.2 mph 79 % 0 in 0.0 W/m2 CLR
23:51 46.8 °F 40.5 °F 30 in NW 27.6 mph 27.6 mph 79 % 0 in 0.0 W/m2 CLR
23:56 46.8 °F 40.6 °F 30 in NW 21.9 mph 21.9 mph 79 % 0 in 0.0 W/m2 CLR
Lo Temps de Massalio
Compliments of Weather Underground - 1.25 mb